createdAt,value
2023-04-19T00:00:00.849Z,6.9
2023-04-19T00:05:00.841Z,6.9
2023-04-19T00:10:00.845Z,7
2023-04-19T00:15:00.861Z,7
2023-04-19T00:20:00.850Z,7
2023-04-19T00:25:00.864Z,7
2023-04-19T00:30:00.962Z,6.9
2023-04-19T00:35:00.958Z,6.9
2023-04-19T00:40:00.986Z,6.9
2023-04-19T00:45:00.925Z,6.9
2023-04-19T00:50:00.905Z,6.9
2023-04-19T00:55:00.906Z,6.9
2023-04-19T01:00:00.811Z,6.9
2023-04-19T01:05:00.976Z,6.9
2023-04-19T01:10:00.860Z,6.9
2023-04-19T01:15:00.869Z,6.9
2023-04-19T01:20:00.904Z,6.9
2023-04-19T01:25:00.858Z,6.9
2023-04-19T01:30:00.842Z,6.9
2023-04-19T01:35:00.860Z,6.9
2023-04-19T01:40:00.955Z,6.9
2023-04-19T01:45:00.830Z,6.9
2023-04-19T01:50:00.899Z,6.9
2023-04-19T01:55:00.856Z,6.9
2023-04-19T02:00:00.860Z,7
2023-04-19T02:05:00.915Z,7
2023-04-19T02:10:00.985Z,7
2023-04-19T02:15:00.944Z,7
2023-04-19T02:20:00.900Z,7
2023-04-19T02:25:00.883Z,7
2023-04-19T02:30:01.203Z,7
2023-04-19T02:35:00.916Z,7
2023-04-19T02:40:00.870Z,7
2023-04-19T02:45:00.859Z,7
2023-04-19T02:50:00.892Z,7
2023-04-19T02:55:00.981Z,7
2023-04-19T03:00:00.889Z,7
2023-04-19T03:05:00.837Z,7
2023-04-19T03:10:00.990Z,7
2023-04-19T03:15:00.883Z,7
2023-04-19T03:20:00.853Z,7
2023-04-19T03:25:01.033Z,6.9
2023-04-19T03:30:00.939Z,6.9
2023-04-19T03:35:00.847Z,7
2023-04-19T03:40:00.855Z,7
2023-04-19T03:45:00.895Z,7
2023-04-19T03:50:00.844Z,7
2023-04-19T03:55:00.906Z,7
2023-04-19T04:00:01.020Z,7
2023-04-19T04:05:00.893Z,7
2023-04-19T04:10:00.856Z,7
2023-04-19T04:15:00.807Z,7
2023-04-19T04:20:00.858Z,7
2023-04-19T04:25:00.889Z,7
2023-04-19T04:30:00.874Z,7
2023-04-19T04:35:00.909Z,7
2023-04-19T04:40:00.859Z,7
2023-04-19T04:45:00.960Z,7
2023-04-19T04:50:00.941Z,7
2023-04-19T04:55:00.874Z,7
2023-04-19T05:00:01.013Z,7
2023-04-19T05:05:00.890Z,7
2023-04-19T05:10:00.839Z,7
2023-04-19T05:15:00.843Z,7
2023-04-19T05:20:00.909Z,7
2023-04-19T05:25:00.823Z,7
2023-04-19T05:30:00.880Z,7.1
2023-04-19T05:40:00.857Z,7
2023-04-19T05:45:00.846Z,7
2023-04-19T05:50:00.847Z,7.1
2023-04-19T05:55:01.111Z,7.1
2023-04-19T06:05:05.082Z,7.1
2023-04-19T06:10:00.846Z,7.1
2023-04-19T06:15:00.864Z,7.1
2023-04-19T06:20:01.028Z,7.1
2023-04-19T06:25:00.940Z,7.1
2023-04-19T06:30:00.841Z,7.1
2023-04-19T06:35:00.889Z,7.1
2023-04-19T06:40:00.919Z,7.1
2023-04-19T06:45:00.854Z,7.1
2023-04-19T06:50:00.845Z,7.1
2023-04-19T06:55:00.878Z,7.1
2023-04-19T07:00:00.887Z,7.1
2023-04-19T07:05:00.912Z,7.1
2023-04-19T07:10:00.908Z,7.1
2023-04-19T07:15:00.945Z,7.2
2023-04-19T07:20:00.955Z,7.2
2023-04-19T07:25:00.967Z,7.2
2023-04-19T07:30:00.943Z,7.1
2023-04-19T07:35:00.897Z,7.1
2023-04-19T07:40:00.913Z,7.1
2023-04-19T07:45:00.889Z,7.1
2023-04-19T07:50:00.934Z,7.1
2023-04-19T07:55:00.888Z,7.1
2023-04-19T08:00:00.926Z,7.1
2023-04-19T08:05:00.965Z,7.2
2023-04-19T08:10:00.963Z,7.1
2023-04-19T08:15:07.636Z,7.1
2023-04-19T08:20:00.849Z,7.2
2023-04-19T08:30:00.923Z,7.2
2023-04-19T08:35:00.912Z,7.3
2023-04-19T08:40:01.192Z,7.1
2023-04-19T08:50:11.686Z,7.2
2023-04-19T08:55:00.801Z,7.2
2023-04-19T09:00:00.905Z,7.3
2023-04-19T09:05:01.160Z,7.3
2023-04-19T09:10:03.610Z,7.3
2023-04-19T09:15:02.459Z,7.3
2023-04-19T09:20:00.847Z,7.3
2023-04-19T09:30:00.860Z,7.2
2023-04-19T09:35:00.806Z,7.2
2023-04-19T09:40:00.970Z,7.2
2023-04-19T09:45:28.108Z,7.3
2023-04-19T09:50:01.263Z,7.2
2023-04-19T09:55:01.091Z,7.2
2023-04-19T10:00:00.889Z,7.3
2023-04-19T10:15:00.913Z,7.3
2023-04-19T10:20:00.935Z,7.3
2023-04-19T10:25:00.897Z,7.2
2023-04-19T10:30:00.887Z,7.2
2023-04-19T10:35:00.933Z,7.2
2023-04-19T10:40:00.882Z,7.3
2023-04-19T10:45:00.977Z,7.2
2023-04-19T10:50:00.852Z,7.3
2023-04-19T10:55:00.932Z,7.3
2023-04-19T11:00:00.828Z,7.4
2023-04-19T11:10:00.943Z,7.4
2023-04-19T11:15:00.830Z,7.4
2023-04-19T11:20:00.925Z,7.3
2023-04-19T11:25:00.904Z,7.3
2023-04-19T11:30:00.830Z,7.4
2023-04-19T11:40:02.737Z,7.4
2023-04-19T11:45:00.889Z,7.3
2023-04-19T11:50:00.985Z,7.4
2023-04-19T11:55:00.890Z,7.4
2023-04-19T12:00:00.908Z,7.3
2023-04-19T12:05:01.110Z,7.4
2023-04-19T12:10:01.032Z,7.5
2023-04-19T12:15:00.926Z,7.5
2023-04-19T12:20:00.827Z,7.3
2023-04-19T12:25:00.803Z,7.3
2023-04-19T12:30:00.840Z,7.2
2023-04-19T12:35:00.844Z,7.3
2023-04-19T12:40:00.921Z,7.3
2023-04-19T12:45:00.916Z,7.3
2023-04-19T12:50:00.916Z,7.4
2023-04-19T12:55:00.885Z,7.4
2023-04-19T13:00:00.890Z,7.4
2023-04-19T13:05:01.092Z,7.2
2023-04-19T13:10:00.872Z,7.3
2023-04-19T13:15:03.716Z,7.3
2023-04-19T13:20:00.925Z,7.2
2023-04-19T13:25:00.890Z,7.1
2023-04-19T13:30:00.869Z,7.1
2023-04-19T13:35:00.845Z,7.2
2023-04-19T13:40:11.031Z,7.2
2023-04-19T13:45:00.887Z,7.2
2023-04-19T13:50:00.842Z,7.1
2023-04-19T13:55:00.927Z,7
2023-04-19T14:00:00.954Z,7
2023-04-19T14:05:00.991Z,7
2023-04-19T14:10:00.825Z,7.1
2023-04-19T14:15:00.860Z,7.1
2023-04-19T14:20:00.902Z,7.2
2023-04-19T14:25:01.113Z,7.1
2023-04-19T14:30:00.909Z,7.1
2023-04-19T14:35:00.861Z,7.2
2023-04-19T14:40:01.038Z,7.1
2023-04-19T14:45:00.988Z,6.9
2023-04-19T14:50:00.920Z,7
2023-04-19T14:55:00.834Z,7.1
2023-04-19T15:00:00.863Z,6.9
2023-04-19T15:05:01.210Z,7.1
2023-04-19T15:10:01.009Z,7.1
2023-04-19T15:15:00.956Z,7.1
2023-04-19T15:20:01.048Z,7
2023-04-19T15:25:00.821Z,7
2023-04-19T15:30:00.900Z,6.9
2023-04-19T15:35:00.932Z,7
2023-04-19T15:40:01.017Z,6.9
2023-04-19T15:45:00.951Z,6.9
2023-04-19T15:50:00.956Z,6.9
2023-04-19T15:55:00.913Z,6.9
2023-04-19T16:00:00.929Z,6.9
2023-04-19T16:05:01.150Z,6.9
2023-04-19T16:10:00.939Z,6.9
2023-04-19T16:15:00.894Z,7
2023-04-19T16:20:00.991Z,6.9
2023-04-19T16:25:00.893Z,6.9
2023-04-19T16:30:00.954Z,6.8
2023-04-19T16:35:00.996Z,6.9
2023-04-19T16:40:00.961Z,6.9
2023-04-19T16:45:00.945Z,6.9
2023-04-19T16:50:00.995Z,6.9
2023-04-19T16:55:00.948Z,6.9
2023-04-19T17:00:00.884Z,7
2023-04-19T17:05:01.199Z,6.9
2023-04-19T17:10:00.919Z,7
2023-04-19T17:15:00.880Z,7.1
2023-04-19T17:20:00.962Z,7
2023-04-19T17:25:00.859Z,6.9
2023-04-19T17:30:00.894Z,6.9
2023-04-19T17:35:01.057Z,6.9
2023-04-19T17:40:00.837Z,6.9
2023-04-19T17:45:00.907Z,6.9
2023-04-19T17:50:00.845Z,6.9
2023-04-19T17:55:01.008Z,7
2023-04-19T18:00:00.955Z,6.8
2023-04-19T18:05:00.911Z,6.8
2023-04-19T18:10:00.901Z,6.8
2023-04-19T18:20:01.158Z,6.7
2023-04-19T18:25:00.823Z,6.7
2023-04-19T18:30:01.001Z,6.7
2023-04-19T18:35:00.948Z,6.7
2023-04-19T18:40:00.860Z,6.7
2023-04-19T18:45:00.856Z,6.6
2023-04-19T18:50:05.523Z,6.6
2023-04-19T18:55:00.874Z,6.6
2023-04-19T19:00:01.053Z,6.6
2023-04-19T19:05:02.185Z,6.6
2023-04-19T19:10:02.400Z,6.4
2023-04-19T19:15:00.827Z,6.4
2023-04-19T19:20:00.881Z,6.4
2023-04-19T19:25:01.020Z,6.3
2023-04-19T19:30:00.909Z,6.1
2023-04-19T19:35:03.269Z,6.1
2023-04-19T19:40:03.974Z,6.1
2023-04-19T19:45:00.872Z,6
2023-04-19T19:55:00.994Z,6
2023-04-19T20:05:01.065Z,6
2023-04-19T20:10:00.874Z,5.9
2023-04-19T20:15:00.837Z,5.8
2023-04-19T20:20:00.958Z,5.8
2023-04-19T20:25:00.965Z,5.8
2023-04-19T20:30:00.986Z,5.9
2023-04-19T20:40:00.994Z,5.9
2023-04-19T20:45:00.916Z,5.9
2023-04-19T20:50:00.935Z,5.9
2023-04-19T20:55:00.980Z,5.9
2023-04-19T21:00:00.921Z,5.9
2023-04-19T21:05:00.939Z,5.9
2023-04-19T21:10:01.023Z,5.9
2023-04-19T21:15:00.851Z,5.7
2023-04-19T21:20:01.011Z,5.7
2023-04-19T21:25:00.967Z,5.6
2023-04-19T21:30:00.918Z,5.6
2023-04-19T21:35:00.890Z,5.5
2023-04-19T21:40:00.972Z,5.5
2023-04-19T21:45:01.075Z,5.6
2023-04-19T21:50:00.916Z,5.5
2023-04-19T21:55:00.796Z,5.5
2023-04-19T22:00:01.080Z,5.5
2023-04-19T22:05:01.004Z,5.5
2023-04-19T22:10:00.882Z,5.4
2023-04-19T22:15:00.958Z,5.5
2023-04-19T22:20:00.964Z,5.5
2023-04-19T22:25:00.912Z,5.5
2023-04-19T22:30:00.977Z,5.5
2023-04-19T22:35:00.866Z,5.5
2023-04-19T22:40:00.890Z,5.5
2023-04-19T22:45:00.995Z,5.5
2023-04-19T22:50:00.862Z,5.5
2023-04-19T22:55:01.012Z,5.5
2023-04-19T23:00:00.863Z,5.5
2023-04-19T23:05:00.953Z,5.5
2023-04-19T23:10:00.936Z,5.5
2023-04-19T23:15:00.965Z,5.5
2023-04-19T23:20:00.923Z,5.5
2023-04-19T23:30:00.854Z,5.5
2023-04-19T23:35:00.890Z,5.5
2023-04-19T23:40:00.888Z,5.5
2023-04-19T23:45:00.850Z,5.5
2023-04-19T23:50:00.969Z,5.5
2023-04-19T23:55:00.927Z,5.5
